Port Said Airport, Egypt

09:04 EET 30. Březen 2015 (GMT +0200)
Port Said | | Change Station
CLOSE
Current Station
Letiště
Location: Port Said Airport,
Nadmořská výška: 7 ft
Poblíž povětrnostní stanice

Výška 7 ft 31.28 °N, 32.24 °E | Updated 1 hour ago

Clear
Jasno
64 °F
Pocit jako 64 °F
S
13
Vítr proměnlivý Vítr od západní

Dnes
Vysoké -- | Nízké -- °F
--% Možnost srážek
Včera
Vysoké -- | Nízké -- °F
Precip. -- inčů
5:42 AM 6:08 PM
Dorůstající měsíc, 77% visible
Tlak 29.95 inčů
Viditelnost -9999.0 mílí
Zataženo
Rosný bod 57 °F
Vlhkost 77%
Dešťové srážky 0.00 inčů
Sněhová pokrývka Není k dispozici
UV záření Není k dispozici
Pyl Není k dispozici
Kvalita ovzduší Není k dispozici
Flu Activity Není k dispozici
METAR HEPS 300600Z 26011KT CAVOK 18/14 Q1014 NOSIG

More Conditions Fewer Conditions

Tlak 29.95 inčů
Viditelnost -9999.0 mílí
Zataženo
Rosný bod 57 °F
Vlhkost 77%
Dešťové srážky 0.00 inčů
Sněhová pokrývka Není k dispozici
UV záření Není k dispozici
Pyl Není k dispozici
Kvalita ovzduší Není k dispozici
Flu Activity Není k dispozici
METAR HEPS 300600Z 26011KT CAVOK 18/14 Q1014 NOSIG

More Conditions Fewer Conditions

10-Day Weather Forecast

Almanac

Astronomie

Mar. 30, 2015 Východ Západ
Skutečný čas
Občanský soumrak
Námořní soumrak
Astronomický soumrak
Měsíc
Délka denního světla
Délka dne
Tomorrow will be .
, % of the Moon is Illuminated

Dnešní extrémy

Nejvyšší hodnoty ve státě Nejnižší hodnoty ve státě

Community

WunderPhotos

Upload Photos

1,809,449 snímků staženo!

WunderBlogs® & News

Nearby

Kvalita ovzduší

  Kvalita ovzduší Index kvality ovzduší Polutant
Not available.

Výška sněhu

Station Hloubka Nadmořská výška

Seizmická činnost

Město Distance Mag. Čas & datum
Minimální zobrazený rozsah je 2.5.

Pobřežní teplota vody

Lokalita Teplota

Stations

Poblíž povětrnostní stanice

Lokace stanice Tepl. Ochlazování větrem Rosný bod Vlhkost Vítr Precip. Výška Čas hlášení Typ